createdAt,value
2023-02-26T00:02:19.836Z,5.80
2023-02-26T00:07:21.972Z,5.60
2023-02-26T00:12:24.357Z,5.40
2023-02-26T00:17:26.382Z,5.20
2023-02-26T00:22:28.799Z,5.10
2023-02-26T00:27:31.210Z,4.90
2023-02-26T00:32:35.058Z,4.80
2023-02-26T00:37:56.166Z,4.70
2023-02-26T00:42:58.559Z,4.40
2023-02-26T00:48:16.550Z,4.30
2023-02-26T00:53:35.978Z,4.30
2023-02-26T00:58:38.072Z,4.20
2023-02-26T01:03:40.524Z,4.00
2023-02-26T01:08:54.870Z,3.80
2023-02-26T01:13:57.358Z,3.60
2023-02-26T01:19:13.538Z,3.60
2023-02-26T01:24:17.974Z,3.60
2023-02-26T01:29:20.329Z,3.70
2023-02-26T01:34:51.715Z,4.10
2023-02-26T01:40:10.412Z,4.50
2023-02-26T01:45:26.542Z,4.70
2023-02-26T01:50:34.567Z,4.80
2023-02-26T01:55:37.459Z,4.90
2023-02-26T02:00:39.609Z,4.90
2023-02-26T02:05:55.112Z,4.90
2023-02-26T02:10:57.446Z,5.00
2023-02-26T02:16:02.297Z,5.10
2023-02-26T02:21:36.074Z,5.10
2023-02-26T02:27:13.702Z,5.00
2023-02-26T02:32:45.697Z,4.80
2023-02-26T02:38:09.379Z,4.60
2023-02-26T02:43:18.937Z,4.50
2023-02-26T02:48:26.800Z,4.50
2023-02-26T02:53:33.184Z,4.50
2023-02-26T02:58:42.296Z,4.60
2023-02-26T03:03:52.461Z,4.70
2023-02-26T03:08:55.315Z,4.70
2023-02-26T03:13:58.407Z,4.70
2023-02-26T03:19:29.346Z,4.60
2023-02-26T03:24:59.771Z,4.70
2023-02-26T03:30:16.045Z,4.80
2023-02-26T03:35:53.668Z,4.90
2023-02-26T03:41:02.319Z,4.90
2023-02-26T03:46:13.465Z,4.90
2023-02-26T03:51:15.984Z,4.90
2023-02-26T03:56:41.730Z,4.90
2023-02-26T04:02:16.090Z,4.90
2023-02-26T04:07:21.292Z,4.80
2023-02-26T04:12:26.123Z,4.70
2023-02-26T04:17:30.456Z,4.60
2023-02-26T04:22:34.702Z,4.60
2023-02-26T04:27:36.884Z,4.60
2023-02-26T04:32:39.508Z,4.60
2023-02-26T04:37:45.130Z,4.50
2023-02-26T04:42:47.700Z,4.50
2023-02-26T04:47:55.925Z,4.50
2023-02-26T04:52:58.126Z,4.50
2023-02-26T04:58:00.593Z,4.50
2023-02-26T05:03:03.638Z,4.50
2023-02-26T05:08:05.938Z,4.50
2023-02-26T05:13:08.725Z,4.50
2023-02-26T05:18:10.843Z,4.50
2023-02-26T05:23:13.302Z,4.40
2023-02-26T05:28:15.953Z,4.40
2023-02-26T05:33:18.281Z,4.40
2023-02-26T05:38:20.582Z,4.30
2023-02-26T05:43:22.737Z,4.30
2023-02-26T05:48:25.053Z,4.30
2023-02-26T05:53:27.275Z,4.30
2023-02-26T05:58:31.410Z,4.30
2023-02-26T06:03:33.905Z,4.20
2023-02-26T06:08:36.078Z,4.20
2023-02-26T06:13:38.487Z,4.20
2023-02-26T06:18:40.638Z,4.20
2023-02-26T06:23:42.767Z,4.10
2023-02-26T06:28:45.009Z,3.80
2023-02-26T06:33:47.098Z,3.60
2023-02-26T06:38:49.263Z,3.50
2023-02-26T06:43:51.338Z,3.30
2023-02-26T06:48:53.425Z,3.10
2023-02-26T06:53:55.576Z,3.00
2023-02-26T06:58:57.917Z,2.90
2023-02-26T07:04:00.185Z,2.80
2023-02-26T07:09:02.268Z,2.70
2023-02-26T07:14:04.320Z,2.70
2023-02-26T07:19:06.418Z,2.60
2023-02-26T07:24:08.927Z,2.70
2023-02-26T07:29:11.082Z,2.80
2023-02-26T07:34:13.123Z,3.10
2023-02-26T07:39:15.295Z,3.20
2023-02-26T07:44:17.437Z,3.30
2023-02-26T07:49:20.319Z,3.50
2023-02-26T07:54:22.398Z,3.60
2023-02-26T07:59:24.478Z,3.70
2023-02-26T08:04:26.868Z,3.80
2023-02-26T08:09:30.711Z,3.90
2023-02-26T08:14:32.762Z,4.10
2023-02-26T08:19:35.311Z,4.20
2023-02-26T08:24:37.642Z,4.20
2023-02-26T08:29:39.754Z,4.30
2023-02-26T08:34:41.901Z,4.50
2023-02-26T08:39:44.075Z,4.80
2023-02-26T08:44:47.266Z,5.10
2023-02-26T08:49:49.416Z,5.10
2023-02-26T08:54:51.926Z,5.30
2023-02-26T08:59:54.013Z,5.60
2023-02-26T09:04:56.327Z,5.60
2023-02-26T09:09:58.440Z,5.60
2023-02-26T09:15:00.595Z,5.80
2023-02-26T09:20:04.745Z,5.80
2023-02-26T09:25:07.525Z,5.90
2023-02-26T09:30:10.742Z,6.30
2023-02-26T09:35:12.904Z,6.50
2023-02-26T09:40:37.105Z,6.70
2023-02-26T09:45:44.479Z,6.70
2023-02-26T09:50:50.864Z,6.50
2023-02-26T09:56:00.887Z,6.40
2023-02-26T10:01:31.292Z,6.30
2023-02-26T10:06:44.224Z,6.60
2023-02-26T10:12:07.068Z,7.00
2023-02-26T10:17:47.869Z,7.30
2023-02-26T10:23:26.504Z,7.60
2023-02-26T10:29:12.177Z,7.50
2023-02-26T10:34:38.158Z,7.20
2023-02-26T10:40:09.338Z,7.30
2023-02-26T10:45:34.379Z,7.30
2023-02-26T10:50:48.979Z,6.90
2023-02-26T10:55:51.194Z,6.90
2023-02-26T11:00:55.438Z,7.00
2023-02-26T11:05:58.243Z,7.10
2023-02-26T11:11:04.464Z,7.30
2023-02-26T11:16:18.746Z,6.90
2023-02-26T11:21:33.872Z,7.10
2023-02-26T11:26:38.149Z,7.10
2023-02-26T11:31:42.025Z,7.20
2023-02-26T11:36:45.287Z,7.10
2023-02-26T11:41:54.479Z,6.90
2023-02-26T11:47:31.213Z,6.60
2023-02-26T11:52:36.315Z,7.10
2023-02-26T11:58:18.562Z,7.50
2023-02-26T12:03:30.639Z,7.00
2023-02-26T12:08:42.269Z,6.70
2023-02-26T12:14:12.372Z,6.70
2023-02-26T12:19:42.915Z,7.00
2023-02-26T12:25:04.426Z,7.50
2023-02-26T12:30:37.143Z,8.00
2023-02-26T12:35:52.769Z,7.50
2023-02-26T12:41:00.502Z,7.50
2023-02-26T12:46:34.084Z,7.80
2023-02-26T12:51:51.470Z,7.90
2023-02-26T12:57:32.354Z,7.80
2023-02-26T13:02:49.342Z,7.90
2023-02-26T13:08:35.655Z,8.20
2023-02-26T13:13:46.966Z,7.90
2023-02-26T13:19:15.483Z,7.70
2023-02-26T13:25:11.639Z,7.40
2023-02-26T13:30:38.767Z,7.30
2023-02-26T13:35:42.665Z,7.50
2023-02-26T13:40:59.749Z,7.80
2023-02-26T13:46:45.164Z,7.60
2023-02-26T13:51:49.734Z,7.60
2023-02-26T13:57:26.398Z,7.60
2023-02-26T14:02:45.453Z,8.00
2023-02-26T14:08:01.145Z,7.90
2023-02-26T14:13:19.681Z,7.50
2023-02-26T14:18:44.801Z,7.50
2023-02-26T14:23:49.885Z,7.60
2023-02-26T14:28:58.033Z,7.20
2023-02-26T14:34:15.603Z,7.30
2023-02-26T14:39:35.880Z,7.40
2023-02-26T14:44:43.421Z,7.50
2023-02-26T14:49:48.155Z,7.40
2023-02-26T14:55:12.418Z,7.40
2023-02-26T15:00:33.398Z,7.50
2023-02-26T15:05:45.445Z,7.30
2023-02-26T15:10:56.727Z,7.10
2023-02-26T15:16:07.733Z,7.10
2023-02-26T15:21:36.068Z,7.30
2023-02-26T15:26:46.589Z,7.30
2023-02-26T15:31:58.159Z,7.30
2023-02-26T15:37:03.704Z,7.30
2023-02-26T15:42:06.002Z,7.20
2023-02-26T15:47:10.607Z,7.20
2023-02-26T15:52:17.662Z,7.50
2023-02-26T15:57:22.195Z,7.20
2023-02-26T16:02:32.689Z,6.70
2023-02-26T16:07:35.068Z,6.70
2023-02-26T16:12:43.690Z,6.90
2023-02-26T16:17:49.010Z,6.90
2023-02-26T16:23:05.191Z,6.70
2023-02-26T16:28:20.100Z,6.90
2023-02-26T16:33:25.006Z,6.90
2023-02-26T16:38:50.158Z,6.90
2023-02-26T16:43:57.618Z,6.90
2023-02-26T16:49:02.772Z,6.80
2023-02-26T16:54:27.115Z,6.70
2023-02-26T16:59:32.179Z,6.70
2023-02-26T17:04:36.661Z,6.70
2023-02-26T17:09:44.905Z,6.70
2023-02-26T17:15:01.690Z,6.70
2023-02-26T17:20:06.133Z,6.60
2023-02-26T17:25:14.990Z,6.40
2023-02-26T17:30:21.878Z,6.40
2023-02-26T17:35:24.121Z,6.30
2023-02-26T17:40:28.446Z,6.30
2023-02-26T17:45:32.155Z,6.30
2023-02-26T17:50:53.055Z,6.20
2023-02-26T17:55:56.611Z,6.10
2023-02-26T18:00:58.875Z,5.90
2023-02-26T18:06:01.542Z,5.80
2023-02-26T18:11:04.470Z,5.70
2023-02-26T18:16:17.057Z,5.60
2023-02-26T18:21:20.443Z,5.50
2023-02-26T18:26:27.635Z,5.40
2023-02-26T18:31:34.826Z,5.30
2023-02-26T18:36:39.676Z,5.40
2023-02-26T18:41:41.952Z,5.50
2023-02-26T18:46:44.957Z,5.50
2023-02-26T18:51:47.498Z,5.50
2023-02-26T18:56:49.758Z,5.40
2023-02-26T19:01:52.031Z,5.20
2023-02-26T19:06:54.189Z,5.20
2023-02-26T19:11:57.367Z,5.10
2023-02-26T19:16:59.847Z,5.10
2023-02-26T19:22:02.149Z,5.10
2023-02-26T19:27:05.662Z,5.30
2023-02-26T19:32:08.989Z,5.30
2023-02-26T19:37:11.539Z,5.30
2023-02-26T19:42:14.620Z,5.30
2023-02-26T19:47:17.014Z,5.20
2023-02-26T19:52:19.258Z,5.30
2023-02-26T19:57:21.386Z,5.30
2023-02-26T20:02:23.945Z,5.30
2023-02-26T20:07:26.328Z,5.30
2023-02-26T20:12:30.490Z,5.30
2023-02-26T20:17:34.227Z,5.40
2023-02-26T20:22:37.001Z,5.50
2023-02-26T20:27:39.448Z,5.40
2023-02-26T20:32:43.852Z,5.50
2023-02-26T20:37:47.277Z,5.40
2023-02-26T20:42:49.558Z,5.30
2023-02-26T20:47:51.739Z,5.20
2023-02-26T20:52:54.132Z,5.00
2023-02-26T20:57:56.419Z,4.90
2023-02-26T21:02:59.094Z,4.80
2023-02-26T21:08:02.483Z,4.90
2023-02-26T21:13:04.818Z,4.90
2023-02-26T21:18:07.021Z,4.80
2023-02-26T21:23:09.387Z,4.70
2023-02-26T21:28:11.572Z,4.70
2023-02-26T21:33:13.811Z,4.70
2023-02-26T21:38:16.032Z,4.70
2023-02-26T21:43:18.370Z,4.60
2023-02-26T21:48:20.557Z,4.60
2023-02-26T21:53:23.200Z,4.50
2023-02-26T21:58:25.735Z,4.60
2023-02-26T22:03:27.866Z,4.50
2023-02-26T22:08:29.997Z,4.40
2023-02-26T22:13:32.363Z,4.40
2023-02-26T22:18:34.542Z,4.50
2023-02-26T22:23:36.993Z,4.50
2023-02-26T22:28:39.189Z,4.50
2023-02-26T22:33:41.374Z,4.40
2023-02-26T22:38:43.552Z,4.50
2023-02-26T22:43:45.818Z,4.40
2023-02-26T22:48:48.024Z,4.40
2023-02-26T22:53:50.759Z,4.40
2023-02-26T22:58:53.049Z,4.50
2023-02-26T23:03:55.640Z,4.80
2023-02-26T23:08:57.876Z,4.90
2023-02-26T23:14:00.176Z,4.80
2023-02-26T23:19:02.905Z,4.70
2023-02-26T23:24:05.477Z,4.70
2023-02-26T23:29:08.578Z,4.60
2023-02-26T23:34:11.300Z,4.50
2023-02-26T23:39:14.946Z,4.50
2023-02-26T23:44:17.364Z,4.50
2023-02-26T23:49:19.573Z,4.50
2023-02-26T23:54:21.839Z,4.50
2023-02-26T23:59:23.969Z,4.60
